EBAW/ANR METAR and TAF weather

Enter ICAO airport designator
Station Type Date Time Source
EBAW METAR 2020/10/20 16:20 UTC NOAA

EBAW 201620Z 19009KT 9999 -RA FEW020 15/12 Q1007 NOSIG


Station Type Date Time Source
EBAW Decoded METAR 2020/10/20 16:20 UTC NOAA

Antwerpen / Deurne, Belgium (EBAW) 51-12N 004-28E 14M
Oct 20, 2020 - 12:20 PM EDT / 2020.10.20 1620 UTC
Wind: from the S (190 degrees) at 10 MPH (9 KT):0
Visibility: greater than 7 mile(s):0
Sky conditions: mostly clear
Weather: light rain
Temperature: 59 F (15 C)
Dew Point: 53 F (12 C)
Relative Humidity: 82%
Pressure (altimeter): 29.74 in. Hg (1007 hPa)
ob: EBAW 201620Z 19009KT 9999 -RA FEW020 15/12 Q1007 NOSIG
cycle: 16

Station Type Date Time Source
EBAW TAF 2020/09/23 00:30 UTC NOAA

TAF TAF EBAW 232300Z 2400/2412 25011KT 9999 SCT030

Example: see airport list